KSBN

South Bend International Airport

South Bend, Indiana, USA
KSBN 230535Z 2306/2406 17009KT 3SM RA BR OVC025 TEMPO 2306/2310 1SM RA BR BKN007 OVC025 FM231100 20010KT 1SM -RA BR OVC004 FM231800 25013KT 4SM BR OVC007 FM232200 29011KT 4SM BR OVC007 FM240200 29010KT P6SM OVC015
Issued Valid From Valid To
Jan-23 @ 05:35 UTC
(2 hours ago)
Jan-23 @ 06:00 UTC
(2 hours ago)
Jan-24 @ 06:00 UTC
(in 22 hours)
Jan-23 @ 06:00 to Jan-23 @ 11:00
KSBN 230535Z 2306/2406 17009KT 3SM RA BR OVC025
Wind Visibility Clouds Conditions
170° at 9 knots 3 miles
  • Overcast at 2,500' AGL
  • Rain
  • Mist
Temporary Jan-23 @ 06:00 to Jan-23 @ 10:00
TEMPO 2306/2310 1SM RA BR BKN007 OVC025
Visibility Clouds Conditions
1 miles
  • Broken at 700' AGL
  • Overcast at 2,500' AGL
  • Rain
  • Mist
From Jan-23 @ 11:00 to Jan-23 @ 18:00
FM231100 20010KT 1SM -RA BR OVC004
Wind Visibility Clouds Conditions
200° at 10 knots 1 miles
  • Overcast at 400' AGL
  • Light Rain
  • Mist
From Jan-23 @ 18:00 to Jan-23 @ 22:00
FM231800 25013KT 4SM BR OVC007
Wind Visibility Clouds Conditions
250° at 13 knots 4 miles
  • Overcast at 700' AGL
  • Mist
From Jan-23 @ 22:00 to Jan-24 @ 02:00
FM232200 29011KT 4SM BR OVC007
Wind Visibility Clouds Conditions
290° at 11 knots 4 miles
  • Overcast at 700' AGL
  • Mist
From Jan-24 @ 02:00 to Jan-24 @ 06:00
FM240200 29010KT P6SM OVC015
Wind Visibility Clouds
290° at 10 knots Greater than 6 miles
  • Overcast at 1,500' AGL
KSBN 230535Z 2306/2406 17009KT 3SM RA BR OVC025 TEMPO 2306/2310 1SM RA BR BKN007 OVC025 FM231100 20010KT 1SM -RA BR OVC004 FM231800 25013KT 4SM BR OVC007 FM232200 29011KT 4SM BR OVC007 FM240200 29010KT P6SM OVC015
Issued Jan-23 @ 05:35 UTC
(2 hours ago)
Valid From Jan-23 @ 06:00 UTC
(2 hours ago)
Valid To Jan-24 @ 06:00 UTC
(in 22 hours)
Jan-23 @ 06:00 - Jan-23 @ 11:00
Wind Visibility
170° at 9 knots 3 miles
Clouds
  • Overcast at 2,500' AGL
Conditions
  • Rain
  • Mist
Temporary Jan-23 @ 06:00 - Jan-23 @ 10:00
Clouds
  • Broken at 700' AGL
  • Overcast at 2,500' AGL
Conditions
  • Rain
  • Mist
From Jan-23 @ 11:00 - Jan-23 @ 18:00
Wind Visibility
200° at 10 knots 1 miles
Clouds
  • Overcast at 400' AGL
Conditions
  • Light Rain
  • Mist
From Jan-23 @ 18:00 - Jan-23 @ 22:00
Wind Visibility
250° at 13 knots 4 miles
Clouds
  • Overcast at 700' AGL
Conditions
  • Mist
From Jan-23 @ 22:00 - Jan-24 @ 02:00
Wind Visibility
290° at 11 knots 4 miles
Clouds
  • Overcast at 700' AGL
Conditions
  • Mist
From Jan-24 @ 02:00 - Jan-24 @ 06:00
Wind Visibility
290° at 10 knots Greater than 6 miles
Clouds
  • Overcast at 1,500' AGL